Time;durP1;ratioP1;P1;durP2;ratioP2;P2;SDS_P1;SDS_P2;PMS_P1;PMS_P2;Temp;Humidity;BMP_temperature;BMP_pressure;BME280_temperature;BME280_humidity;BME280_pressure;Samples;Min_cycle;Max_cycle;Signal;HPM_P1;HPM_P2
2022/04/24 00:03:24;;;;;;;1.25;0.95;;;;;;;10.21;54.35;100350.72;10588661;28;20066;-77
2022/04/24 00:08:26;;;;;;;0.22;0.22;;;;;;;10.29;53.90;100350.03;10589437;28;20376;-77
2022/04/24 00:13:31;;;;;;;3.83;1.08;;;;;;;10.31;53.81;100347.50;10587407;28;20048;-77
2022/04/24 00:18:33;;;;;;;3.75;2.35;;;;;;;10.34;53.68;100339.81;10587526;28;20112;-74
2022/04/24 00:23:35;;;;;;;1.20;0.63;;;;;;;10.27;53.93;100343.13;10582504;28;20074;-73
2022/04/24 00:28:36;;;;;;;0.80;0.38;;;;;;;10.29;54.14;100344.00;10563529;28;20047;-74
2022/04/24 00:33:38;;;;;;;0.20;0.20;;;;;;;10.22;54.80;100342.16;10579161;28;20536;-74
2022/04/24 00:38:39;;;;;;;0.00;0.00;;;;;;;9.92;55.93;100331.31;10581430;28;20081;-73
2022/04/24 00:43:41;;;;;;;0.55;0.55;;;;;;;9.89;55.79;100327.81;10581487;28;20440;-73
2022/04/24 00:49:03;;;;;;;2.40;1.10;;;;;;;9.92;55.47;100322.75;10579221;28;20112;-74
2022/04/24 00:54:06;;;;;;;3.15;1.65;;;;;;;9.74;56.18;100325.81;10580560;28;20040;-74
2022/04/24 00:59:09;;;;;;;0.50;0.50;;;;;;;9.76;56.04;100322.44;10580409;28;20043;-74
2022/04/24 01:04:12;;;;;;;0.05;0.05;;;;;;;9.69;56.78;100326.56;10567594;28;20066;-74
2022/04/24 01:09:15;;;;;;;4.75;2.83;;;;;;;9.71;57.16;100315.47;10579839;28;20100;-74
2022/04/24 01:14:18;;;;;;;1.00;0.82;;;;;;;9.64;57.18;100317.91;10580034;28;20551;-75
2022/04/24 01:19:20;;;;;;;0.00;0.00;;;;;;;9.51;58.42;100321.94;10580170;28;20052;-74
2022/04/24 01:24:24;;;;;;;0.30;0.20;;;;;;;9.56;58.48;100313.47;10579639;28;20040;-73
2022/04/24 01:29:26;;;;;;;0.47;0.40;;;;;;;9.56;58.79;100313.47;10561115;28;20054;-74
2022/04/24 01:34:28;;;;;;;0.98;0.88;;;;;;;9.58;58.70;100320.38;10578647;28;20078;-74
2022/04/24 01:39:29;;;;;;;0.77;0.57;;;;;;;9.43;59.70;100313.19;10580115;28;20486;-74
2022/04/24 01:44:31;;;;;;;0.73;0.55;;;;;;;9.45;59.98;100315.81;10577588;28;20096;-73
2022/04/24 01:49:33;;;;;;;1.10;0.80;;;;;;;9.43;60.12;100318.31;10578324;28;20035;-75
2022/04/24 01:54:35;;;;;;;1.77;1.35;;;;;;;9.48;59.60;100310.72;10577955;28;20131;-74
2022/04/24 01:59:37;;;;;;;1.88;0.30;;;;;;;9.51;60.00;100314.22;10554364;28;20035;-74
2022/04/24 02:04:38;;;;;;;1.15;1.10;;;;;;;9.44;60.12;100316.63;10577513;28;20096;-74
2022/04/24 02:09:40;;;;;;;0.17;0.17;;;;;;;9.43;60.70;100318.31;10578523;28;20043;-75
2022/04/24 02:14:42;;;;;;;0.20;0.20;;;;;;;9.38;60.72;100317.38;10576747;28;20065;-74
2022/04/24 02:19:43;;;;;;;0.20;0.20;;;;;;;9.34;60.92;100320.72;10578215;28;20058;-74
2022/04/24 02:24:45;;;;;;;5.22;2.67;;;;;;;9.29;61.44;100319.72;10577145;28;20048;-75
2022/04/24 02:29:46;;;;;;;0.15;0.10;;;;;;;9.27;61.01;100316.28;10559133;28;20074;-74
2022/04/24 02:34:48;;;;;;;0.30;0.30;;;;;;;9.14;61.87;100315.13;10576961;28;20039;-74
2022/04/24 02:39:52;;;;;;;3.17;1.10;;;;;;;9.13;61.95;100321.97;10577197;28;20057;-74
2022/04/24 02:44:54;;;;;;;1.58;1.38;;;;;;;9.10;61.57;100314.22;10577276;28;20175;-73
2022/04/24 02:49:55;;;;;;;0.75;0.52;;;;;;;9.02;61.80;100321.72;10576887;28;20043;-75
2022/04/24 02:54:57;;;;;;;4.25;2.25;;;;;;;8.95;61.69;100321.56;10580619;28;20040;-73
2022/04/24 03:00:03;;;;;;;0.03;0.03;;;;;;;8.93;61.93;100326.69;10581094;28;20042;-73
2022/04/24 03:05:05;;;;;;;2.88;1.80;;;;;;;8.90;61.49;100329.16;10584765;28;20054;-74
2022/04/24 03:10:11;;;;;;;2.85;0.88;;;;;;;8.87;61.67;100327.38;10567110;28;20051;-75
2022/04/24 03:15:14;;;;;;;0.25;0.25;;;;;;;8.81;62.44;100332.38;10567429;28;20060;-74
2022/04/24 03:20:16;;;;;;;0.65;0.20;;;;;;;8.73;62.23;100328.75;10585713;28;20510;-74
2022/04/24 03:25:17;;;;;;;0.38;0.20;;;;;;;8.53;63.01;100334.25;10584783;28;20089;-75
2022/04/24 03:30:19;;;;;;;3.88;1.70;;;;;;;8.48;63.16;100337.56;10585266;28;20052;-75
2022/04/24 03:35:20;;;;;;;0.82;0.60;;;;;;;8.36;63.46;100335.50;10584332;28;20085;-75
2022/04/24 03:40:23;;;;;;;0.70;0.57;;;;;;;8.20;64.37;100341.94;10584578;28;20104;-75
2022/04/24 03:45:24;;;;;;;1.38;1.17;;;;;;;8.16;63.79;100340.97;10565585;28;20043;-76
2022/04/24 03:50:26;;;;;;;0.70;0.65;;;;;;;8.23;63.76;100342.03;10583250;28;20077;-75
2022/04/24 03:55:29;;;;;;;0.10;0.10;;;;;;;8.05;63.95;100342.41;10583665;28;20039;-75
2022/04/24 04:00:30;;;;;;;0.25;0.25;;;;;;;7.96;64.20;100337.91;10567380;28;20050;-76
2022/04/24 04:05:36;;;;;;;0.10;0.10;;;;;;;8.03;63.75;100334.66;10581453;28;20097;-76
2022/04/24 04:10:38;;;;;;;0.28;0.28;;;;;;;7.99;64.29;100334.53;10583114;28;20415;-75
2022/04/24 04:15:39;;;;;;;0.52;0.43;;;;;;;7.72;65.16;100338.06;10582745;28;20040;-76
2022/04/24 04:20:43;;;;;;;0.20;0.20;;;;;;;7.75;64.77;100338.16;10582403;28;20071;-75
2022/04/24 04:25:44;;;;;;;0.00;0.00;;;;;;;7.60;65.33;100344.59;10582029;28;20486;-75
2022/04/24 04:30:46;;;;;;;0.57;0.43;;;;;;;7.75;64.20;100343.28;10563583;28;20507;-75
2022/04/24 04:35:48;;;;;;;2.78;1.30;;;;;;;7.68;64.56;100341.38;10582219;28;20486;-75
2022/04/24 04:40:49;;;;;;;3.45;1.77;;;;;;;7.73;64.77;100355.19;10581487;28;20075;-74
2022/04/24 04:45:51;;;;;;;0.40;0.40;;;;;;;7.77;64.40;100357.88;10581427;28;20075;-76
2022/04/24 04:50:53;;;;;;;2.08;1.13;;;;;;;7.78;63.90;100369.03;10580680;28;20052;-75
2022/04/24 04:55:55;;;;;;;2.75;1.35;;;;;;;7.82;63.58;100370.84;10580734;28;20032;-75
2022/04/24 05:00:56;;;;;;;0.47;0.28;;;;;;;7.96;63.13;100378.94;10568293;28;20043;-76
2022/04/24 05:05:58;;;;;;;2.30;1.02;;;;;;;8.02;63.30;100383.34;10562188;28;20043;-75
2022/04/24 05:11:02;;;;;;;0.55;0.52;;;;;;;8.03;63.14;100379.97;10561446;28;20085;-76
2022/04/24 05:16:04;;;;;;;2.72;1.75;;;;;;;8.12;61.98;100390.50;10579506;28;20495;-75
2022/04/24 05:21:09;;;;;;;0.10;0.10;;;;;;;8.23;62.59;100394.19;10560706;28;20086;-75
2022/04/24 05:26:10;;;;;;;1.80;1.33;;;;;;;8.28;62.21;100390.91;10580094;28;20071;-74
2022/04/24 05:31:12;;;;;;;0.20;0.20;;;;;;;8.44;62.15;100387.03;10580628;28;20071;-74
2022/04/24 05:36:13;;;;;;;3.03;1.45;;;;;;;8.43;61.77;100396.44;10580122;28;20035;-74
2022/04/24 05:41:15;;;;;;;0.90;0.82;;;;;;;8.63;60.74;100399.56;10579816;28;20059;-73
2022/04/24 05:46:17;;;;;;;0.00;0.00;;;;;;;8.78;60.53;100401.66;10560804;28;20063;-74
2022/04/24 05:51:18;;;;;;;1.40;0.70;;;;;;;8.82;59.95;100405.16;10560859;28;20092;-74
2022/04/24 05:56:21;;;;;;;0.32;0.28;;;;;;;9.05;59.70;100410.84;10579437;28;20050;-73
2022/04/24 06:01:22;;;;;;;0.00;0.00;;;;;;;9.23;59.35;100402.75;10560995;28;20051;-74
2022/04/24 06:06:24;;;;;;;0.80;0.40;;;;;;;9.41;58.61;100406.53;10561026;28;20044;-74
2022/04/24 06:11:26;;;;;;;0.40;0.40;;;;;;;9.42;58.60;100408.28;10582313;27;20039;-74
2022/04/24 06:16:27;;;;;;;0.28;0.28;;;;;;;9.55;57.96;100409.44;10583789;27;20051;-74
2022/04/24 06:21:29;;;;;;;0.65;0.50;;;;;;;9.76;58.22;100409.91;10560224;28;20065;-75
2022/04/24 06:26:31;;;;;;;1.15;0.98;;;;;;;9.69;58.03;100413.19;10560380;28;20071;-74
2022/04/24 06:31:33;;;;;;;2.33;0.93;;;;;;;10.00;57.96;100400.97;10559393;28;20144;-74
2022/04/24 06:36:35;;;;;;;1.65;0.75;;;;;;;10.09;57.40;100403.69;10588156;28;20043;-74
2022/04/24 06:41:37;;;;;;;1.23;0.60;;;;;;;10.26;55.70;100410.88;10584321;27;20050;-76
2022/04/24 06:46:38;;;;;;;1.27;0.70;;;;;;;10.41;55.74;100416.38;10573051;28;20059;-74
2022/04/24 06:51:40;;;;;;;1.55;0.88;;;;;;;10.39;54.92;100402.59;10595736;28;20044;-75
2022/04/24 06:56:41;;;;;;;0.47;0.45;;;;;;;10.72;54.79;100406.63;10595976;28;20043;-74
2022/04/24 07:01:43;;;;;;;2.15;1.55;;;;;;;10.81;54.66;100407.63;10596023;28;20051;-76
2022/04/24 07:06:44;;;;;;;4.80;2.50;;;;;;;10.99;53.70;100407.91;10587510;28;20078;-73
2022/04/24 07:11:46;;;;;;;0.28;0.28;;;;;;;11.52;53.89;100404.41;10591076;27;20065;-75
2022/04/24 07:16:48;;;;;;;0.00;0.00;;;;;;;11.93;52.85;100403.22;10575669;28;20131;-76
2022/04/24 07:21:49;;;;;;;1.63;1.15;;;;;;;11.58;53.50;100419.09;10557802;28;20043;-77
2022/04/24 07:26:51;;;;;;;0.00;0.00;;;;;;;12.64;50.41;100414.34;10596083;27;20039;-74
2022/04/24 07:31:53;;;;;;;0.13;0.13;;;;;;;12.65;51.26;100416.09;10588748;28;20052;-75
2022/04/24 07:36:55;;;;;;;1.13;0.77;;;;;;;12.27;50.72;100419.13;10589132;28;20439;-75
2022/04/24 07:41:59;;;;;;;4.90;2.45;;;;;;;12.19;51.46;100423.34;10597403;28;20096;-77
2022/04/24 07:47:02;;;;;;;1.55;0.95;;;;;;;13.12;50.38;100426.84;10566608;28;20075;-76
2022/04/24 07:52:04;;;;;;;4.38;0.85;;;;;;;12.91;49.48;100424.94;10585613;27;20044;-75
2022/04/24 07:57:05;;;;;;;1.83;0.57;;;;;;;12.99;49.74;100415.53;10584599;28;20023;-74
2022/04/24 08:02:07;;;;;;;2.25;1.63;;;;;;;13.52;48.80;100410.75;10585067;28;20117;-75
2022/04/24 08:07:09;;;;;;;0.35;0.20;;;;;;;13.75;48.65;100414.31;10585415;28;20479;-75
2022/04/24 08:12:11;;;;;;;0.40;0.40;;;;;;;14.05;47.71;100415.31;10609741;27;20126;-75
2022/04/24 08:17:12;;;;;;;0.00;0.00;;;;;;;14.20;47.05;100417.09;10584136;28;20032;-76
2022/04/24 08:22:14;;;;;;;0.17;0.08;;;;;;;14.05;48.83;100417.91;10567361;27;20047;-74
2022/04/24 08:27:15;;;;;;;1.02;0.40;;;;;;;15.13;45.80;100412.06;10603578;27;20036;-75
2022/04/24 08:32:24;;;;;;;0.63;0.57;;;;;;;14.98;46.54;100414.66;10613679;27;20048;-76
2022/04/24 08:37:29;;;;;;;0.40;0.30;;;;;;;15.19;46.26;100409.44;10613975;27;20466;-76
2022/04/24 08:42:32;;;;;;;3.10;1.02;;;;;;;15.00;46.59;100415.53;10576894;27;20109;-76
2022/04/24 08:47:59;;;;;;;1.20;0.80;;;;;;;15.15;45.47;100415.50;10600988;27;20055;-74
2022/04/24 08:53:03;;;;;;;3.13;1.98;;;;;;;15.04;44.78;100415.50;10575468;27;20410;-74
2022/04/24 08:58:05;;;;;;;1.90;1.38;;;;;;;15.75;45.10;100409.31;10605680;27;20067;-76
2022/04/24 09:03:07;;;;;;;5.25;3.22;;;;;;;15.23;44.22;100421.53;10596332;27;20035;-73
2022/04/24 09:08:11;;;;;;;0.00;0.00;;;;;;;16.83;46.29;100420.03;10584311;27;20043;-76
2022/04/24 09:14:14;;;;;;;0.55;0.43;;;;;;;16.59;44.95;100421.94;10609114;27;20071;-75
2022/04/24 09:18:57;;;;;;;2.35;1.50;;;;;;;15.98;43.91;100417.06;10611760;27;20047;-76
2022/04/24 09:24:00;;;;;;;0.75;0.38;;;;;;;16.52;42.33;100425.44;10565469;27;20076;-75
2022/04/24 09:29:10;;;;;;;2.88;1.40;;;;;;;16.30;43.79;100420.38;10598974;27;20133;-75
2022/04/24 09:34:12;;;;;;;0.55;0.30;;;;;;;16.38;42.95;100418.59;10595168;27;20387;-75
2022/04/24 09:39:13;;;;;;;5.28;1.63;;;;;;;16.17;42.60;100420.44;10591548;27;20055;-74
2022/04/24 09:44:15;;;;;;;0.25;0.25;;;;;;;16.90;43.88;100424.31;10601863;27;20047;-75
2022/04/24 09:49:18;;;;;;;2.35;1.52;;;;;;;16.93;44.06;100422.56;10581041;27;20047;-75
2022/04/24 09:54:20;;;;;;;0.80;0.55;;;;;;;17.11;39.90;100420.69;10597789;27;20043;-75
2022/04/24 09:59:26;;;;;;;2.33;1.42;;;;;;;16.87;41.80;100421.72;10598883;27;20042;-76
2022/04/24 10:04:27;;;;;;;2.45;1.00;;;;;;;17.66;39.51;100413.19;10591104;27;20138;-75
2022/04/24 10:09:30;;;;;;;2.08;1.48;;;;;;;17.52;39.93;100415.97;10603586;27;20047;-74
2022/04/24 10:14:37;;;;;;;2.00;0.77;;;;;;;17.27;40.45;100413.59;10578563;27;20040;-75
2022/04/24 10:19:56;;;;;;;1.60;0.95;;;;;;;17.49;39.17;100431.63;10564404;27;20039;-76
2022/04/24 10:25:03;;;;;;;3.03;1.90;;;;;;;17.24;40.53;100427.50;10611367;27;20060;-74
2022/04/24 10:30:06;;;;;;;1.65;0.35;;;;;;;18.03;40.11;100429.31;10603919;27;20509;-76
2022/04/24 10:35:18;;;;;;;2.92;1.35;;;;;;;17.34;41.67;100436.09;10623425;27;20095;-75
2022/04/24 10:40:20;;;;;;;5.53;2.58;;;;;;;16.85;40.22;100439.09;10587261;28;20093;-75
2022/04/24 10:45:23;;;;;;;3.17;1.70;;;;;;;17.76;40.15;100420.88;10583294;28;20082;-75
2022/04/24 10:50:25;;;;;;;0.85;0.65;;;;;;;17.96;40.08;100424.16;10578353;28;20552;-74
2022/04/24 10:55:29;;;;;;;3.35;1.50;;;;;;;17.89;38.68;100421.59;10587653;28;20482;-78
2022/04/24 11:00:34;;;;;;;2.08;1.08;;;;;;;18.20;39.50;100425.63;10606029;27;20051;-78
2022/04/24 11:05:38;;;;;;;5.53;2.97;;;;;;;17.19;41.37;100436.25;10602428;27;20508;-78
2022/04/24 11:10:43;;;;;;;4.45;2.42;;;;;;;16.81;40.22;100428.69;10564824;28;20055;-78
2022/04/24 11:15:50;;;;;;;0.00;0.00;;;;;;;19.34;39.82;100418.63;10585688;27;20047;-80
2022/04/24 11:21:01;;;;;;;1.00;0.73;;;;;;;18.85;38.02;100409.00;10612497;27;20036;-78
2022/04/24 11:26:08;;;;;;;5.38;1.23;;;;;;;18.37;38.05;100412.34;10612170;27;20047;-79
2022/04/24 11:31:09;;;;;;;0.85;0.65;;;;;;;18.18;38.16;100416.94;10597816;27;20045;-78
2022/04/24 11:36:11;;;;;;;2.83;1.65;;;;;;;18.38;38.95;100403.63;10598007;27;20031;-77
2022/04/24 11:41:14;;;;;;;0.63;0.63;;;;;;;18.77;40.58;100410.88;10615062;27;20090;-77
2022/04/24 11:51:39;;;;;;;1.45;0.90;;;;;;;18.61;36.88;100410.25;10616686;27;20031;-79
2022/04/24 11:56:42;;;;;;;2.78;1.90;;;;;;;18.30;34.93;100419.38;10615739;27;20044;-79
2022/04/24 12:01:46;;;;;;;0.35;0.35;;;;;;;18.70;36.00;100410.09;10608224;27;20096;-79
2022/04/24 12:06:50;;;;;;;3.35;1.48;;;;;;;17.06;39.90;100417.25;10617594;27;20095;-79
2022/04/24 12:12:14;;;;;;;0.63;0.32;;;;;;;18.00;36.21;100403.25;10611238;27;20054;-79
2022/04/24 12:17:16;;;;;;;3.80;1.80;;;;;;;17.55;39.86;100402.91;10614102;27;20040;-77
2022/04/24 12:22:27;;;;;;;2.25;1.45;;;;;;;16.44;39.20;100415.94;10613407;27;20589;-77
2022/04/24 12:27:29;;;;;;;1.88;1.17;;;;;;;17.19;39.47;100407.59;10613785;27;20074;-79
2022/04/24 12:32:31;;;;;;;0.98;0.82;;;;;;;16.94;37.96;100424.31;10616194;27;20053;-76
2022/04/24 12:37:34;;;;;;;6.18;2.42;;;;;;;17.54;37.50;100425.50;10615101;27;20058;-79
2022/04/24 12:42:36;;;;;;;0.63;0.57;;;;;;;18.85;36.66;100403.78;10620353;27;20445;-79
2022/04/24 12:47:37;;;;;;;0.88;0.35;;;;;;;19.03;36.65;100402.66;10615141;27;20386;-78
2022/04/24 12:52:39;;;;;;;1.13;0.73;;;;;;;17.49;37.38;100427.28;10617268;27;20031;-77
2022/04/24 12:57:40;;;;;;;2.92;2.00;;;;;;;16.87;36.71;100417.41;10607296;27;20100;-79
2022/04/24 13:02:44;;;;;;;0.88;0.68;;;;;;;16.87;37.18;100417.41;10556312;27;20264;-78
2022/04/24 13:07:46;;;;;;;2.33;0.68;;;;;;;18.07;36.13;100417.09;10568568;28;20398;-77
2022/04/24 13:12:51;;;;;;;5.63;1.73;;;;;;;17.11;35.34;100426.75;10576569;28;20371;-77
2022/04/24 13:18:07;;;;;;;1.45;0.93;;;;;;;17.41;35.11;100416.94;10576781;28;20047;-78
2022/04/24 13:23:13;;;;;;;0.55;0.38;;;;;;;18.73;35.43;100402.22;10557539;28;20044;-79
2022/04/24 13:28:16;;;;;;;0.10;0.10;;;;;;;17.30;37.29;100410.97;10576443;28;20502;-78
2022/04/24 13:33:18;;;;;;;1.92;0.68;;;;;;;16.76;36.35;100414.00;10538104;28;20479;-78
2022/04/24 13:38:24;;;;;;;3.38;1.42;;;;;;;17.73;36.39;100400.09;10546070;28;20048;-78
2022/04/24 13:43:27;;;;;;;0.00;0.00;;;;;;;18.26;34.27;100401.19;10562124;28;20465;-78
2022/04/24 13:48:30;;;;;;;0.15;0.15;;;;;;;18.93;32.00;100404.56;10550727;28;20047;-79
2022/04/24 13:53:33;;;;;;;1.80;0.95;;;;;;;18.59;34.68;100407.66;10556350;28;20046;-77
2022/04/24 13:58:34;;;;;;;0.28;0.13;;;;;;;18.39;34.62;100408.81;10543520;28;20132;-79
2022/04/24 14:03:36;;;;;;;1.17;0.80;;;;;;;18.76;35.46;100398.72;10575293;27;20071;-79
2022/04/24 14:08:38;;;;;;;0.00;0.00;;;;;;;19.10;40.03;100398.19;10534668;28;20034;-77
2022/04/24 14:13:39;;;;;;;1.48;0.73;;;;;;;18.58;37.62;100399.84;10559940;28;20047;-77
2022/04/24 14:18:41;;;;;;;0.77;0.50;;;;;;;18.02;33.83;100406.72;10556476;28;20051;-79
2022/04/24 14:23:45;;;;;;;0.40;0.40;;;;;;;18.02;35.24;100404.13;10573685;28;20640;-79
2022/04/24 14:28:47;;;;;;;0.25;0.25;;;;;;;18.51;31.31;100396.47;10544792;28;20109;-79
2022/04/24 14:33:48;;;;;;;0.17;0.10;;;;;;;17.48;35.77;100412.53;10566090;28;20044;-79
2022/04/24 14:38:50;;;;;;;3.15;1.40;;;;;;;16.32;40.62;100423.84;10574440;28;20047;-77
2022/04/24 14:43:51;;;;;;;0.00;0.00;;;;;;;16.42;39.08;100424.63;10558700;28;20085;-78
2022/04/24 14:59:40;;;;;;;4.32;1.90;;;;;;;16.53;38.78;100432.38;10583280;28;20126;-77
2022/04/24 15:04:41;;;;;;;12.52;1.88;;;;;;;16.17;40.36;100433.44;10563044;28;20479;-77
2022/04/24 15:09:45;;;;;;;3.67;2.33;;;;;;;16.25;37.59;100432.53;10582291;28;20397;-79
2022/04/24 15:14:47;;;;;;;3.20;1.60;;;;;;;16.65;37.41;100434.88;10581511;28;20043;-78
2022/04/24 15:19:49;;;;;;;1.25;0.50;;;;;;;17.00;38.01;100439.00;10583171;28;20473;-77
2022/04/24 15:24:51;;;;;;;3.28;1.92;;;;;;;16.34;37.83;100429.91;10581335;28;20735;-77
2022/04/24 15:30:11;;;;;;;1.00;0.75;;;;;;;17.07;37.61;100440.69;10538057;28;20115;-77
2022/04/24 15:35:13;;;;;;;3.20;1.90;;;;;;;17.04;39.39;100437.25;10538810;28;20449;-77
2022/04/24 15:40:15;;;;;;;1.83;1.02;;;;;;;17.41;37.44;100435.16;10566219;28;20043;-77
2022/04/24 15:45:22;;;;;;;2.45;0.65;;;;;;;17.50;37.36;100446.38;10580590;28;20039;-79
2022/04/24 15:50:27;;;;;;;0.95;0.90;;;;;;;17.30;37.24;100447.44;10580846;28;20322;-79
2022/04/24 15:55:35;;;;;;;0.57;0.30;;;;;;;17.17;37.78;100451.00;10561369;28;20116;-78
2022/04/24 16:00:37;;;;;;;1.70;1.08;;;;;;;16.45;37.87;100445.44;10580299;28;20499;-80
2022/04/24 16:05:39;;;;;;;0.40;0.28;;;;;;;16.32;38.77;100457.63;10579277;28;20075;-78
2022/04/24 16:10:40;;;;;;;0.52;0.40;;;;;;;16.20;40.70;100462.84;10578813;28;20050;-77
2022/04/24 16:15:43;;;;;;;1.02;0.65;;;;;;;16.32;38.80;100462.81;10580216;28;20054;-78
2022/04/24 16:20:46;;;;;;;0.10;0.10;;;;;;;16.18;41.14;100466.34;10560833;28;20058;-77
2022/04/24 16:25:47;;;;;;;2.22;0.90;;;;;;;15.68;40.50;100477.72;10560862;28;20043;-77
2022/04/24 16:30:49;;;;;;;0.17;0.17;;;;;;;16.04;39.41;100483.75;10578016;28;20398;-78
2022/04/24 16:35:51;;;;;;;0.30;0.30;;;;;;;16.08;40.12;100477.66;10590090;27;20040;-78
2022/04/24 16:40:52;;;;;;;0.57;0.47;;;;;;;15.78;40.81;100484.63;10591600;27;20043;-77
2022/04/24 16:46:00;;;;;;;0.47;0.22;;;;;;;15.78;40.44;100487.22;10609550;27;20047;-78
2022/04/24 17:01:42;;;;;;;0.47;0.35;;;;;;;15.19;41.61;100500.25;10577284;28;20051;-79
2022/04/24 17:06:44;;;;;;;0.75;0.52;;;;;;;14.97;42.05;100504.56;10577516;28;20064;-78
2022/04/24 17:11:48;;;;;;;0.10;0.10;;;;;;;15.05;43.38;100507.19;10558660;28;20582;-79
2022/04/24 17:16:50;;;;;;;1.85;1.27;;;;;;;15.08;42.83;100512.34;10577382;28;20126;-77
2022/04/24 17:21:51;;;;;;;2.53;0.95;;;;;;;15.12;42.62;100516.69;10577320;28;20055;-77
2022/04/24 17:26:54;;;;;;;0.47;0.30;;;;;;;14.96;44.77;100514.94;10611975;27;20032;-79
2022/04/24 17:31:58;;;;;;;0.55;0.55;;;;;;;14.88;45.00;100513.19;10577036;28;20055;-78
2022/04/24 17:37:00;;;;;;;0.98;0.55;;;;;;;14.55;44.45;100517.41;10577131;28;20050;-80
2022/04/24 17:42:02;;;;;;;0.00;0.00;;;;;;;14.69;42.57;100524.41;10581669;27;20043;-77
2022/04/24 17:47:05;;;;;;;0.40;0.40;;;;;;;14.31;44.16;100530.28;10595608;27;20103;-76
2022/04/24 17:52:09;;;;;;;0.00;0.00;;;;;;;14.45;42.84;100526.00;10610275;27;20106;-78
2022/04/24 17:57:13;;;;;;;0.00;0.00;;;;;;;14.13;45.07;100542.25;10602947;27;20032;-77
2022/04/24 18:02:15;;;;;;;1.38;1.05;;;;;;;14.05;44.55;100534.47;10575981;28;20122;-77
2022/04/24 18:07:28;;;;;;;0.00;0.00;;;;;;;13.96;45.02;100543.03;10534231;28;20048;-79
2022/04/24 18:12:30;;;;;;;0.38;0.38;;;;;;;13.91;45.87;100556.81;10551668;28;20082;-80
2022/04/24 18:17:32;;;;;;;0.15;0.15;;;;;;;13.45;48.51;100559.91;10576100;28;20549;-78
2022/04/24 18:22:34;;;;;;;0.00;0.00;;;;;;;13.31;49.16;100558.03;10574529;28;20081;-77
2022/04/24 18:35:17;;;;;;;0.00;0.00;;;;;;;12.89;50.01;100581.75;10578125;27;20051;-78
2022/04/24 18:47:29;;;;;;;1.48;0.52;;;;;;;12.62;49.22;100599.53;10383347;28;20554;-77
2022/04/24 18:52:31;;;;;;;2.22;1.17;;;;;;;12.39;51.08;100612.16;10410537;28;20064;-77
2022/04/24 18:57:33;;;;;;;2.25;0.88;;;;;;;12.26;49.75;100624.03;10386439;28;20053;-78
2022/04/24 19:02:34;;;;;;;1.92;1.23;;;;;;;12.05;50.33;100627.19;10402122;28;20061;-78
2022/04/24 19:07:37;;;;;;;1.40;0.68;;;;;;;11.99;50.59;100635.69;10418677;28;20094;-77
2022/04/24 19:12:38;;;;;;;0.90;0.70;;;;;;;11.75;51.31;100649.03;10575303;28;20043;-77
2022/04/24 19:17:40;;;;;;;0.98;0.60;;;;;;;11.54;52.24;100649.53;10558141;28;20040;-77
2022/04/24 19:22:43;;;;;;;0.55;0.32;;;;;;;11.26;53.78;100659.34;10557319;28;20051;-78
2022/04/24 19:27:46;;;;;;;0.00;0.00;;;;;;;11.27;54.50;100666.25;10569282;28;20088;-77
2022/04/24 19:32:47;;;;;;;0.00;0.00;;;;;;;11.25;54.90;100680.81;10561546;28;20047;-74
2022/04/24 19:37:49;;;;;;;0.10;0.10;;;;;;;11.10;55.31;100687.41;10575534;27;20065;-74
2022/04/24 19:42:51;;;;;;;0.00;0.00;;;;;;;11.02;56.17;100688.09;10598649;27;20489;-73
2022/04/24 19:53:13;;;;;;;0.00;0.00;;;;;;;11.06;56.42;100698.47;10579929;28;20417;-72
2022/04/24 19:58:14;;;;;;;0.00;0.00;;;;;;;11.15;56.56;100699.50;10582172;28;20104;-73
2022/04/24 20:03:16;;;;;;;0.25;0.15;;;;;;;11.13;56.22;100707.22;10581151;28;20583;-73
2022/04/24 20:08:21;;;;;;;0.00;0.00;;;;;;;11.03;56.60;100706.16;10581344;28;20412;-73
2022/04/24 20:13:23;;;;;;;0.30;0.30;;;;;;;11.01;56.71;100712.97;10601840;27;20043;-73
2022/04/24 20:18:25;;;;;;;0.00;0.00;;;;;;;11.00;58.56;100713.81;10599978;27;20498;-73
2022/04/24 20:23:27;;;;;;;0.00;0.00;;;;;;;11.08;56.78;100721.72;10623532;27;20468;-73
2022/04/24 20:28:29;;;;;;;0.00;0.00;;;;;;;10.73;57.11;100729.53;10622610;27;20074;-77
2022/04/24 20:33:31;;;;;;;0.00;0.00;;;;;;;10.48;58.56;100732.44;10537724;28;20044;-77
2022/04/24 20:38:33;;;;;;;0.00;0.00;;;;;;;10.54;58.09;100734.28;10537844;28;20067;-76
2022/04/24 20:43:35;;;;;;;0.10;0.10;;;;;;;10.37;58.45;100733.91;10595861;27;20501;-77
2022/04/24 20:48:37;;;;;;;0.00;0.00;;;;;;;10.14;59.46;100731.59;10565683;27;20043;-76
2022/04/24 20:53:38;;;;;;;13.57;1.65;;;;;;;9.95;61.02;100731.94;10597080;27;20059;-77
2022/04/24 20:58:40;;;;;;;0.05;0.05;;;;;;;9.86;60.71;100724.00;10527113;28;20043;-76
2022/04/24 21:03:41;;;;;;;0.85;0.82;;;;;;;9.71;61.67;100722.78;10560815;28;20051;-77
2022/04/24 21:08:43;;;;;;;0.68;0.68;;;;;;;9.73;62.20;100723.66;10579430;28;20040;-76
2022/04/24 21:13:45;;;;;;;2.63;1.73;;;;;;;9.62;63.35;100725.09;10577808;28;20075;-76
2022/04/24 21:19:06;;;;;;;0.90;0.63;;;;;;;9.63;63.67;100732.84;10562511;28;20104;-76
2022/04/24 21:24:08;;;;;;;1.50;1.00;;;;;;;9.57;64.56;100736.97;10578255;27;20043;-76
2022/04/24 21:29:09;;;;;;;1.95;1.15;;;;;;;9.56;64.56;100748.09;10598263;27;20035;-77
2022/04/24 21:34:11;;;;;;;2.28;0.43;;;;;;;9.41;64.87;100749.41;10609705;27;20056;-76
2022/04/24 21:39:13;;;;;;;0.70;0.65;;;;;;;9.44;64.26;100752.06;10566489;28;20078;-76
2022/04/24 21:44:15;;;;;;;1.70;1.10;;;;;;;9.28;64.76;100755.91;10557910;28;20494;-76
2022/04/24 21:49:17;;;;;;;0.00;0.00;;;;;;;9.28;64.46;100762.72;10572359;28;20085;-73
2022/04/24 21:54:20;;;;;;;4.80;1.85;;;;;;;9.11;64.65;100762.22;10581562;28;20051;-73
2022/04/24 21:59:21;;;;;;;2.58;1.10;;;;;;;9.11;64.54;100763.13;10581536;28;20482;-73
2022/04/24 22:04:43;;;;;;;3.33;1.98;;;;;;;9.05;64.79;100774.09;10569515;28;20513;-73
2022/04/24 22:09:44;;;;;;;2.80;1.65;;;;;;;8.97;65.10;100774.69;10581184;28;20091;-74
2022/04/24 22:14:46;;;;;;;0.98;0.75;;;;;;;8.73;65.86;100775.66;10578844;28;20076;-74
2022/04/24 22:19:47;;;;;;;2.28;0.77;;;;;;;8.83;65.95;100777.69;10557887;28;20051;-74
2022/04/24 22:24:49;;;;;;;1.85;0.70;;;;;;;8.71;66.25;100788.44;10575919;28;20448;-74
2022/04/24 22:29:51;;;;;;;0.77;0.70;;;;;;;8.60;67.09;100789.81;10576032;28;20043;-74
2022/04/24 22:34:52;;;;;;;1.25;0.65;;;;;;;8.56;67.94;100799.09;10557452;28;20507;-73
2022/04/24 22:39:54;;;;;;;2.70;1.45;;;;;;;8.52;67.91;100801.53;10558227;28;20039;-73
2022/04/24 22:44:56;;;;;;;0.00;0.00;;;;;;;8.50;68.42;100798.03;10556971;28;20056;-74
2022/04/24 22:49:57;;;;;;;3.28;1.38;;;;;;;8.36;68.33;100800.13;10574989;28;20058;-74
2022/04/24 22:54:59;;;;;;;0.65;0.35;;;;;;;8.23;69.46;100797.13;10574108;28;20167;-74
2022/04/24 23:00:04;;;;;;;0.70;0.70;;;;;;;8.10;70.27;100810.38;10573052;28;20483;-73
2022/04/24 23:05:07;;;;;;;0.10;0.10;;;;;;;8.09;70.24;100816.31;10574707;28;20046;-74
2022/04/24 23:10:09;;;;;;;0.30;0.30;;;;;;;8.02;70.92;100825.50;10575506;28;20054;-73
2022/04/24 23:15:10;;;;;;;1.23;0.80;;;;;;;7.94;70.74;100822.66;10582793;28;20075;-73
2022/04/24 23:20:12;;;;;;;3.50;2.03;;;;;;;7.77;71.42;100823.78;10583577;28;20067;-74
2022/04/24 23:25:14;;;;;;;0.93;0.60;;;;;;;7.80;72.14;100829.00;10539392;28;20044;-73
2022/04/24 23:30:17;;;;;;;0.28;0.17;;;;;;;7.86;71.88;100834.34;10582170;28;20089;-73
2022/04/24 23:35:19;;;;;;;1.23;0.82;;;;;;;7.78;72.31;100843.47;10582122;28;20116;-73
2022/04/24 23:40:20;;;;;;;0.10;0.10;;;;;;;7.80;72.38;100829.00;10581138;28;20067;-74
2022/04/24 23:45:22;;;;;;;7.28;2.45;;;;;;;7.85;72.61;100834.28;10580939;28;20048;-74
2022/04/24 23:50:23;;;;;;;0.50;0.50;;;;;;;7.77;72.77;100836.59;10581545;28;20075;-73
2022/04/24 23:55:25;;;;;;;2.30;1.73;;;;;;;7.74;72.81;100839.03;10575747;28;20039;-74
